sensor_id;sensor_type;location;lat;lon;timestamp;P1;durP1;ratioP1;P2;durP2;ratioP2
12990;SDS011;6560;57.692;11.958;2022-12-08T00:01:40;7.00;;;5.73;;
12990;SDS011;6560;57.692;11.958;2022-12-08T00:04:06;8.73;;;6.60;;
12990;SDS011;6560;57.692;11.958;2022-12-08T00:06:39;8.13;;;6.77;;
12990;SDS011;6560;57.692;11.958;2022-12-08T00:14:36;8.63;;;6.30;;
12990;SDS011;6560;57.692;11.958;2022-12-08T00:17:04;7.10;;;5.83;;
12990;SDS011;6560;57.692;11.958;2022-12-08T00:19:30;6.20;;;5.30;;
12990;SDS011;6560;57.692;11.958;2022-12-08T00:21:56;6.90;;;5.93;;
12990;SDS011;6560;57.692;11.958;2022-12-08T00:24:23;6.17;;;5.30;;
12990;SDS011;6560;57.692;11.958;2022-12-08T00:26:53;6.17;;;5.30;;
12990;SDS011;6560;57.692;11.958;2022-12-08T00:29:26;8.80;;;5.93;;
12990;SDS011;6560;57.692;11.958;2022-12-08T00:31:52;7.13;;;5.73;;
12990;SDS011;6560;57.692;11.958;2022-12-08T00:34:17;8.00;;;5.73;;
12990;SDS011;6560;57.692;11.958;2022-12-08T00:36:43;7.87;;;5.90;;
12990;SDS011;6560;57.692;11.958;2022-12-08T00:39:10;6.40;;;4.97;;
12990;SDS011;6560;57.692;11.958;2022-12-08T00:41:36;7.60;;;4.33;;
12990;SDS011;6560;57.692;11.958;2022-12-08T00:44:21;5.97;;;4.20;;
12990;SDS011;6560;57.692;11.958;2022-12-08T00:46:46;7.20;;;4.70;;
12990;SDS011;6560;57.692;11.958;2022-12-08T00:49:12;3.90;;;3.50;;
12990;SDS011;6560;57.692;11.958;2022-12-08T00:51:39;6.37;;;3.80;;
12990;SDS011;6560;57.692;11.958;2022-12-08T00:54:05;5.80;;;4.53;;
12990;SDS011;6560;57.692;11.958;2022-12-08T00:56:30;6.70;;;4.60;;
12990;SDS011;6560;57.692;11.958;2022-12-08T00:58:56;7.50;;;4.73;;
12990;SDS011;6560;57.692;11.958;2022-12-08T01:01:22;5.73;;;5.13;;
12990;SDS011;6560;57.692;11.958;2022-12-08T01:03:48;5.77;;;4.60;;
12990;SDS011;6560;57.692;11.958;2022-12-08T01:06:13;6.73;;;4.33;;
12990;SDS011;6560;57.692;11.958;2022-12-08T01:08:39;6.63;;;5.27;;
12990;SDS011;6560;57.692;11.958;2022-12-08T01:11:06;8.03;;;5.33;;
12990;SDS011;6560;57.692;11.958;2022-12-08T01:13:39;7.23;;;5.20;;
12990;SDS011;6560;57.692;11.958;2022-12-08T01:16:05;5.10;;;3.97;;
12990;SDS011;6560;57.692;11.958;2022-12-08T01:18:31;6.73;;;4.67;;
12990;SDS011;6560;57.692;11.958;2022-12-08T01:21:04;4.93;;;4.10;;
12990;SDS011;6560;57.692;11.958;2022-12-08T01:23:31;7.07;;;4.10;;
12990;SDS011;6560;57.692;11.958;2022-12-08T01:26:00;7.77;;;4.37;;
12990;SDS011;6560;57.692;11.958;2022-12-08T01:28:31;4.73;;;4.20;;
12990;SDS011;6560;57.692;11.958;2022-12-08T01:30:57;7.00;;;4.90;;
12990;SDS011;6560;57.692;11.958;2022-12-08T01:33:24;5.50;;;4.50;;
12990;SDS011;6560;57.692;11.958;2022-12-08T01:35:50;4.67;;;4.13;;
12990;SDS011;6560;57.692;11.958;2022-12-08T01:38:16;5.90;;;3.67;;
12990;SDS011;6560;57.692;11.958;2022-12-08T01:40:42;5.57;;;4.30;;
12990;SDS011;6560;57.692;11.958;2022-12-08T01:43:13;7.97;;;4.53;;
12990;SDS011;6560;57.692;11.958;2022-12-08T01:45:40;7.10;;;4.50;;
12990;SDS011;6560;57.692;11.958;2022-12-08T01:48:07;6.47;;;4.53;;
12990;SDS011;6560;57.692;11.958;2022-12-08T01:50:39;8.33;;;4.67;;
12990;SDS011;6560;57.692;11.958;2022-12-08T01:53:19;6.47;;;4.13;;
12990;SDS011;6560;57.692;11.958;2022-12-08T01:55:55;8.07;;;4.53;;
12990;SDS011;6560;57.692;11.958;2022-12-08T01:58:36;7.43;;;3.47;;
12990;SDS011;6560;57.692;11.958;2022-12-08T02:01:05;5.60;;;3.97;;
12990;SDS011;6560;57.692;11.958;2022-12-08T02:03:37;5.80;;;4.07;;
12990;SDS011;6560;57.692;11.958;2022-12-08T02:06:07;6.60;;;3.77;;
12990;SDS011;6560;57.692;11.958;2022-12-08T02:08:34;6.00;;;3.77;;
12990;SDS011;6560;57.692;11.958;2022-12-08T02:11:04;5.53;;;3.80;;
12990;SDS011;6560;57.692;11.958;2022-12-08T02:13:30;5.67;;;4.23;;
12990;SDS011;6560;57.692;11.958;2022-12-08T02:16:10;9.80;;;3.77;;
12990;SDS011;6560;57.692;11.958;2022-12-08T02:27:07;5.47;;;3.80;;
12990;SDS011;6560;57.692;11.958;2022-12-08T02:29:51;5.83;;;4.07;;
12990;SDS011;6560;57.692;11.958;2022-12-08T02:38:28;5.73;;;3.70;;
12990;SDS011;6560;57.692;11.958;2022-12-08T02:43:44;6.57;;;4.30;;
12990;SDS011;6560;57.692;11.958;2022-12-08T02:46:23;5.60;;;3.57;;
12990;SDS011;6560;57.692;11.958;2022-12-08T02:48:55;5.73;;;3.27;;
12990;SDS011;6560;57.692;11.958;2022-12-08T02:51:21;5.73;;;3.20;;
12990;SDS011;6560;57.692;11.958;2022-12-08T02:53:47;5.23;;;3.50;;
12990;SDS011;6560;57.692;11.958;2022-12-08T03:04:42;4.30;;;3.10;;
12990;SDS011;6560;57.692;11.958;2022-12-08T03:09:59;3.47;;;2.90;;
12990;SDS011;6560;57.692;11.958;2022-12-08T03:12:37;4.00;;;3.27;;
12990;SDS011;6560;57.692;11.958;2022-12-08T03:15:09;4.80;;;3.57;;
12990;SDS011;6560;57.692;11.958;2022-12-08T03:17:39;4.40;;;3.37;;
12990;SDS011;6560;57.692;11.958;2022-12-08T03:20:09;6.57;;;4.40;;
12990;SDS011;6560;57.692;11.958;2022-12-08T03:22:38;4.97;;;3.17;;
12990;SDS011;6560;57.692;11.958;2022-12-08T03:25:06;4.17;;;3.17;;
12990;SDS011;6560;57.692;11.958;2022-12-08T03:27:34;3.83;;;3.00;;
12990;SDS011;6560;57.692;11.958;2022-12-08T03:30:00;4.40;;;3.57;;
12990;SDS011;6560;57.692;11.958;2022-12-08T03:35:06;3.60;;;3.17;;
12990;SDS011;6560;57.692;11.958;2022-12-08T03:37:36;4.87;;;3.47;;
12990;SDS011;6560;57.692;11.958;2022-12-08T03:40:03;3.97;;;3.10;;
12990;SDS011;6560;57.692;11.958;2022-12-08T03:42:31;3.33;;;3.03;;
12990;SDS011;6560;57.692;11.958;2022-12-08T03:44:56;4.70;;;3.23;;
12990;SDS011;6560;57.692;11.958;2022-12-08T03:47:22;4.03;;;3.40;;
12990;SDS011;6560;57.692;11.958;2022-12-08T03:49:47;4.10;;;2.90;;
12990;SDS011;6560;57.692;11.958;2022-12-08T03:52:13;5.00;;;3.33;;
12990;SDS011;6560;57.692;11.958;2022-12-08T03:54:39;4.57;;;3.20;;
12990;SDS011;6560;57.692;11.958;2022-12-08T03:57:04;4.43;;;3.10;;
12990;SDS011;6560;57.692;11.958;2022-12-08T03:59:30;3.33;;;2.87;;
12990;SDS011;6560;57.692;11.958;2022-12-08T04:01:55;3.23;;;2.80;;
12990;SDS011;6560;57.692;11.958;2022-12-08T04:04:21;4.97;;;3.77;;
12990;SDS011;6560;57.692;11.958;2022-12-08T04:06:46;4.67;;;3.10;;
12990;SDS011;6560;57.692;11.958;2022-12-08T04:09:12;5.07;;;3.30;;
12990;SDS011;6560;57.692;11.958;2022-12-08T04:11:38;4.97;;;2.97;;
12990;SDS011;6560;57.692;11.958;2022-12-08T04:14:03;4.07;;;2.83;;
12990;SDS011;6560;57.692;11.958;2022-12-08T04:16:29;4.03;;;3.33;;
12990;SDS011;6560;57.692;11.958;2022-12-08T04:18:54;4.70;;;3.33;;
12990;SDS011;6560;57.692;11.958;2022-12-08T04:21:20;4.43;;;3.57;;
12990;SDS011;6560;57.692;11.958;2022-12-08T04:23:46;4.73;;;3.93;;
12990;SDS011;6560;57.692;11.958;2022-12-08T04:26:12;6.37;;;3.90;;
12990;SDS011;6560;57.692;11.958;2022-12-08T04:28:38;4.37;;;3.60;;
12990;SDS011;6560;57.692;11.958;2022-12-08T04:31:04;5.13;;;3.77;;
12990;SDS011;6560;57.692;11.958;2022-12-08T04:33:30;4.30;;;3.87;;
12990;SDS011;6560;57.692;11.958;2022-12-08T04:35:55;4.27;;;3.87;;
12990;SDS011;6560;57.692;11.958;2022-12-08T04:38:21;4.30;;;3.53;;
12990;SDS011;6560;57.692;11.958;2022-12-08T04:40:47;3.37;;;3.07;;
12990;SDS011;6560;57.692;11.958;2022-12-08T04:43:13;4.87;;;3.50;;
12990;SDS011;6560;57.692;11.958;2022-12-08T04:45:39;4.03;;;3.63;;
12990;SDS011;6560;57.692;11.958;2022-12-08T04:48:06;4.47;;;3.53;;
12990;SDS011;6560;57.692;11.958;2022-12-08T04:50:31;5.27;;;4.00;;
12990;SDS011;6560;57.692;11.958;2022-12-08T04:52:57;5.43;;;3.43;;
12990;SDS011;6560;57.692;11.958;2022-12-08T04:55:22;5.27;;;3.83;;
12990;SDS011;6560;57.692;11.958;2022-12-08T04:57:48;4.87;;;3.47;;
12990;SDS011;6560;57.692;11.958;2022-12-08T05:00:14;7.07;;;4.37;;
12990;SDS011;6560;57.692;11.958;2022-12-08T05:02:40;6.10;;;4.37;;
12990;SDS011;6560;57.692;11.958;2022-12-08T05:05:05;5.80;;;3.67;;
12990;SDS011;6560;57.692;11.958;2022-12-08T05:07:31;4.77;;;3.53;;
12990;SDS011;6560;57.692;11.958;2022-12-08T05:09:57;5.20;;;3.67;;
12990;SDS011;6560;57.692;11.958;2022-12-08T05:12:22;4.70;;;3.43;;
12990;SDS011;6560;57.692;11.958;2022-12-08T05:14:48;3.57;;;3.00;;
12990;SDS011;6560;57.692;11.958;2022-12-08T05:17:16;5.07;;;3.40;;
12990;SDS011;6560;57.692;11.958;2022-12-08T05:19:42;3.63;;;2.67;;
12990;SDS011;6560;57.692;11.958;2022-12-08T05:22:08;4.13;;;3.10;;
12990;SDS011;6560;57.692;11.958;2022-12-08T05:24:34;3.97;;;3.50;;
12990;SDS011;6560;57.692;11.958;2022-12-08T05:26:59;4.73;;;3.30;;
12990;SDS011;6560;57.692;11.958;2022-12-08T05:29:25;7.13;;;3.60;;
12990;SDS011;6560;57.692;11.958;2022-12-08T05:31:50;4.23;;;3.37;;
12990;SDS011;6560;57.692;11.958;2022-12-08T05:34:16;3.77;;;2.93;;
12990;SDS011;6560;57.692;11.958;2022-12-08T05:36:41;5.37;;;3.80;;
12990;SDS011;6560;57.692;11.958;2022-12-08T05:39:08;4.47;;;3.03;;
12990;SDS011;6560;57.692;11.958;2022-12-08T05:41:36;4.27;;;2.90;;
12990;SDS011;6560;57.692;11.958;2022-12-08T05:44:02;3.60;;;2.97;;
12990;SDS011;6560;57.692;11.958;2022-12-08T05:46:27;6.20;;;3.20;;
12990;SDS011;6560;57.692;11.958;2022-12-08T05:48:53;3.70;;;3.00;;
12990;SDS011;6560;57.692;11.958;2022-12-08T05:51:19;5.27;;;3.50;;
12990;SDS011;6560;57.692;11.958;2022-12-08T05:53:47;4.80;;;3.77;;
12990;SDS011;6560;57.692;11.958;2022-12-08T05:56:13;7.10;;;3.53;;
12990;SDS011;6560;57.692;11.958;2022-12-08T05:58:39;7.60;;;4.10;;
12990;SDS011;6560;57.692;11.958;2022-12-08T06:01:05;3.93;;;3.30;;
12990;SDS011;6560;57.692;11.958;2022-12-08T06:03:31;3.83;;;3.17;;
12990;SDS011;6560;57.692;11.958;2022-12-08T06:05:56;5.57;;;3.83;;
12990;SDS011;6560;57.692;11.958;2022-12-08T06:08:22;3.80;;;3.50;;
12990;SDS011;6560;57.692;11.958;2022-12-08T06:10:47;5.47;;;3.50;;
12990;SDS011;6560;57.692;11.958;2022-12-08T06:13:13;5.50;;;3.33;;
12990;SDS011;6560;57.692;11.958;2022-12-08T06:15:39;3.77;;;3.47;;
12990;SDS011;6560;57.692;11.958;2022-12-08T06:18:05;4.43;;;3.33;;
12990;SDS011;6560;57.692;11.958;2022-12-08T06:20:31;3.97;;;3.13;;
12990;SDS011;6560;57.692;11.958;2022-12-08T06:22:57;4.60;;;2.83;;
12990;SDS011;6560;57.692;11.958;2022-12-08T06:25:23;4.07;;;3.07;;
12990;SDS011;6560;57.692;11.958;2022-12-08T06:27:49;4.53;;;3.30;;
12990;SDS011;6560;57.692;11.958;2022-12-08T06:30:14;4.10;;;3.27;;
12990;SDS011;6560;57.692;11.958;2022-12-08T06:32:40;5.07;;;3.23;;
12990;SDS011;6560;57.692;11.958;2022-12-08T06:35:06;5.83;;;3.73;;
12990;SDS011;6560;57.692;11.958;2022-12-08T06:37:31;6.67;;;3.73;;
12990;SDS011;6560;57.692;11.958;2022-12-08T06:39:57;4.57;;;3.20;;
12990;SDS011;6560;57.692;11.958;2022-12-08T06:42:23;4.13;;;3.30;;
12990;SDS011;6560;57.692;11.958;2022-12-08T06:45:07;5.63;;;3.10;;
12990;SDS011;6560;57.692;11.958;2022-12-08T06:47:33;6.70;;;3.50;;
12990;SDS011;6560;57.692;11.958;2022-12-08T06:49:59;4.57;;;3.80;;
12990;SDS011;6560;57.692;11.958;2022-12-08T06:52:28;4.03;;;2.93;;
12990;SDS011;6560;57.692;11.958;2022-12-08T06:54:54;6.43;;;3.80;;
12990;SDS011;6560;57.692;11.958;2022-12-08T06:57:20;5.17;;;3.57;;
12990;SDS011;6560;57.692;11.958;2022-12-08T06:59:45;8.60;;;4.03;;
12990;SDS011;6560;57.692;11.958;2022-12-08T07:02:11;5.70;;;4.13;;
12990;SDS011;6560;57.692;11.958;2022-12-08T07:04:37;4.23;;;3.27;;
12990;SDS011;6560;57.692;11.958;2022-12-08T07:07:02;14.70;;;4.07;;
12990;SDS011;6560;57.692;11.958;2022-12-08T07:09:28;6.33;;;3.23;;
12990;SDS011;6560;57.692;11.958;2022-12-08T07:11:54;6.33;;;3.80;;
12990;SDS011;6560;57.692;11.958;2022-12-08T07:14:19;5.90;;;3.47;;
12990;SDS011;6560;57.692;11.958;2022-12-08T07:16:49;4.63;;;3.30;;
12990;SDS011;6560;57.692;11.958;2022-12-08T07:19:15;8.37;;;4.00;;
12990;SDS011;6560;57.692;11.958;2022-12-08T07:21:42;6.23;;;3.83;;
12990;SDS011;6560;57.692;11.958;2022-12-08T07:24:13;5.50;;;4.00;;
12990;SDS011;6560;57.692;11.958;2022-12-08T07:26:39;6.67;;;4.10;;
12990;SDS011;6560;57.692;11.958;2022-12-08T07:29:05;5.43;;;4.13;;
12990;SDS011;6560;57.692;11.958;2022-12-08T07:31:31;8.07;;;4.33;;
12990;SDS011;6560;57.692;11.958;2022-12-08T07:33:57;10.53;;;4.73;;
12990;SDS011;6560;57.692;11.958;2022-12-08T07:36:22;8.30;;;5.03;;
12990;SDS011;6560;57.692;11.958;2022-12-08T07:38:49;6.10;;;4.77;;
12990;SDS011;6560;57.692;11.958;2022-12-08T07:41:16;7.27;;;5.07;;
12990;SDS011;6560;57.692;11.958;2022-12-08T07:43:43;9.60;;;5.20;;
12990;SDS011;6560;57.692;11.958;2022-12-08T07:46:12;8.93;;;5.13;;
12990;SDS011;6560;57.692;11.958;2022-12-08T07:48:39;6.87;;;4.70;;
12990;SDS011;6560;57.692;11.958;2022-12-08T07:51:05;6.57;;;4.70;;
12990;SDS011;6560;57.692;11.958;2022-12-08T07:53:31;7.83;;;4.43;;
12990;SDS011;6560;57.692;11.958;2022-12-08T07:55:57;13.53;;;5.13;;
12990;SDS011;6560;57.692;11.958;2022-12-08T07:58:23;7.63;;;4.77;;
12990;SDS011;6560;57.692;11.958;2022-12-08T08:00:49;7.50;;;4.93;;
12990;SDS011;6560;57.692;11.958;2022-12-08T08:03:15;9.77;;;4.07;;
12990;SDS011;6560;57.692;11.958;2022-12-08T08:05:41;8.77;;;4.70;;
12990;SDS011;6560;57.692;11.958;2022-12-08T08:08:08;8.00;;;3.80;;
12990;SDS011;6560;57.692;11.958;2022-12-08T08:10:34;5.60;;;3.50;;
12990;SDS011;6560;57.692;11.958;2022-12-08T08:12:59;9.80;;;3.53;;
12990;SDS011;6560;57.692;11.958;2022-12-08T08:15:25;6.53;;;4.07;;
12990;SDS011;6560;57.692;11.958;2022-12-08T08:17:51;10.80;;;4.37;;
12990;SDS011;6560;57.692;11.958;2022-12-08T08:20:17;7.67;;;3.47;;
12990;SDS011;6560;57.692;11.958;2022-12-08T08:22:47;3.80;;;3.40;;
12990;SDS011;6560;57.692;11.958;2022-12-08T08:25:14;7.70;;;4.00;;
12990;SDS011;6560;57.692;11.958;2022-12-08T08:27:40;15.10;;;3.67;;
12990;SDS011;6560;57.692;11.958;2022-12-08T08:30:08;6.00;;;3.80;;
12990;SDS011;6560;57.692;11.958;2022-12-08T08:32:42;5.03;;;3.20;;
12990;SDS011;6560;57.692;11.958;2022-12-08T08:35:08;6.87;;;3.77;;
12990;SDS011;6560;57.692;11.958;2022-12-08T08:37:34;3.77;;;3.33;;
12990;SDS011;6560;57.692;11.958;2022-12-08T08:39:59;6.57;;;3.60;;
12990;SDS011;6560;57.692;11.958;2022-12-08T08:42:25;7.63;;;3.03;;
12990;SDS011;6560;57.692;11.958;2022-12-08T08:44:51;6.80;;;3.13;;
12990;SDS011;6560;57.692;11.958;2022-12-08T08:47:16;4.37;;;3.20;;
12990;SDS011;6560;57.692;11.958;2022-12-08T08:49:42;6.37;;;3.33;;
12990;SDS011;6560;57.692;11.958;2022-12-08T08:52:07;7.27;;;2.93;;
12990;SDS011;6560;57.692;11.958;2022-12-08T08:54:33;6.13;;;3.00;;
12990;SDS011;6560;57.692;11.958;2022-12-08T08:56:59;6.10;;;2.97;;
12990;SDS011;6560;57.692;11.958;2022-12-08T08:59:25;7.23;;;2.93;;
12990;SDS011;6560;57.692;11.958;2022-12-08T09:01:52;4.00;;;2.50;;
12990;SDS011;6560;57.692;11.958;2022-12-08T09:04:19;8.23;;;3.80;;
12990;SDS011;6560;57.692;11.958;2022-12-08T09:06:45;3.93;;;2.73;;
12990;SDS011;6560;57.692;11.958;2022-12-08T09:09:12;5.40;;;2.80;;
12990;SDS011;6560;57.692;11.958;2022-12-08T09:11:38;4.53;;;2.50;;
12990;SDS011;6560;57.692;11.958;2022-12-08T09:14:16;4.83;;;3.30;;
12990;SDS011;6560;57.692;11.958;2022-12-08T09:16:42;2.50;;;2.30;;
12990;SDS011;6560;57.692;11.958;2022-12-08T09:19:08;4.30;;;3.10;;
12990;SDS011;6560;57.692;11.958;2022-12-08T09:21:33;6.47;;;3.03;;
12990;SDS011;6560;57.692;11.958;2022-12-08T09:23:59;6.70;;;2.60;;
12990;SDS011;6560;57.692;11.958;2022-12-08T09:26:25;4.53;;;2.70;;
12990;SDS011;6560;57.692;11.958;2022-12-08T09:28:52;7.00;;;2.77;;
12990;SDS011;6560;57.692;11.958;2022-12-08T09:31:19;5.80;;;3.07;;
12990;SDS011;6560;57.692;11.958;2022-12-08T09:33:46;5.87;;;2.47;;
12990;SDS011;6560;57.692;11.958;2022-12-08T09:36:12;3.63;;;2.60;;
12990;SDS011;6560;57.692;11.958;2022-12-08T09:38:38;4.00;;;2.30;;
12990;SDS011;6560;57.692;11.958;2022-12-08T09:41:13;6.93;;;2.33;;
12990;SDS011;6560;57.692;11.958;2022-12-08T09:46:20;5.60;;;2.90;;
12990;SDS011;6560;57.692;11.958;2022-12-08T09:48:50;3.97;;;2.13;;
12990;SDS011;6560;57.692;11.958;2022-12-08T09:51:22;3.37;;;2.10;;
12990;SDS011;6560;57.692;11.958;2022-12-08T09:53:50;5.27;;;1.97;;
12990;SDS011;6560;57.692;11.958;2022-12-08T09:56:22;6.27;;;1.73;;
12990;SDS011;6560;57.692;11.958;2022-12-08T09:58:52;6.40;;;1.57;;
12990;SDS011;6560;57.692;11.958;2022-12-08T10:01:30;3.63;;;1.23;;
12990;SDS011;6560;57.692;11.958;2022-12-08T10:03:59;4.77;;;1.90;;
12990;SDS011;6560;57.692;11.958;2022-12-08T10:11:52;3.57;;;1.10;;
12990;SDS011;6560;57.692;11.958;2022-12-08T10:14:30;3.27;;;0.87;;
12990;SDS011;6560;57.692;11.958;2022-12-08T10:17:06;1.93;;;1.20;;
12990;SDS011;6560;57.692;11.958;2022-12-08T10:19:48;2.80;;;1.20;;
12990;SDS011;6560;57.692;11.958;2022-12-08T10:22:21;3.97;;;2.40;;
12990;SDS011;6560;57.692;11.958;2022-12-08T10:24:56;1.87;;;1.10;;
12990;SDS011;6560;57.692;11.958;2022-12-08T10:27:34;2.63;;;1.10;;
12990;SDS011;6560;57.692;11.958;2022-12-08T10:30:01;4.73;;;2.03;;
12990;SDS011;6560;57.692;11.958;2022-12-08T10:32:48;4.57;;;1.20;;
12990;SDS011;6560;57.692;11.958;2022-12-08T10:35:19;3.53;;;0.93;;
12990;SDS011;6560;57.692;11.958;2022-12-08T10:37:59;3.60;;;2.17;;
12990;SDS011;6560;57.692;11.958;2022-12-08T10:40:27;5.90;;;1.13;;
12990;SDS011;6560;57.692;11.958;2022-12-08T10:42:59;8.27;;;1.20;;
12990;SDS011;6560;57.692;11.958;2022-12-08T10:45:38;3.23;;;0.80;;
12990;SDS011;6560;57.692;11.958;2022-12-08T10:48:21;6.03;;;1.20;;
12990;SDS011;6560;57.692;11.958;2022-12-08T10:50:55;7.33;;;0.90;;
12990;SDS011;6560;57.692;11.958;2022-12-08T10:53:24;2.70;;;1.13;;
12990;SDS011;6560;57.692;11.958;2022-12-08T10:58:32;2.63;;;0.97;;
12990;SDS011;6560;57.692;11.958;2022-12-08T11:03:53;2.60;;;1.00;;
12990;SDS011;6560;57.692;11.958;2022-12-08T11:06:29;3.07;;;1.17;;
12990;SDS011;6560;57.692;11.958;2022-12-08T11:09:03;8.17;;;1.80;;
12990;SDS011;6560;57.692;11.958;2022-12-08T11:14:17;2.93;;;1.87;;
12990;SDS011;6560;57.692;11.958;2022-12-08T11:16:43;2.70;;;1.77;;
12990;SDS011;6560;57.692;11.958;2022-12-08T11:19:13;4.30;;;1.63;;
12990;SDS011;6560;57.692;11.958;2022-12-08T11:21:41;3.23;;;1.60;;
12990;SDS011;6560;57.692;11.958;2022-12-08T11:26:39;8.93;;;2.20;;
12990;SDS011;6560;57.692;11.958;2022-12-08T11:29:12;6.70;;;2.20;;
12990;SDS011;6560;57.692;11.958;2022-12-08T11:31:39;5.90;;;1.63;;
12990;SDS011;6560;57.692;11.958;2022-12-08T11:34:13;6.13;;;1.13;;
12990;SDS011;6560;57.692;11.958;2022-12-08T11:37:05;2.30;;;1.20;;
12990;SDS011;6560;57.692;11.958;2022-12-08T11:39:35;4.60;;;1.43;;
12990;SDS011;6560;57.692;11.958;2022-12-08T11:42:09;3.60;;;1.07;;
12990;SDS011;6560;57.692;11.958;2022-12-08T11:44:58;5.17;;;1.10;;
12990;SDS011;6560;57.692;11.958;2022-12-08T11:47:38;2.03;;;0.87;;
12990;SDS011;6560;57.692;11.958;2022-12-08T11:52:46;8.93;;;1.80;;
12990;SDS011;6560;57.692;11.958;2022-12-08T11:57:39;2.70;;;0.77;;
12990;SDS011;6560;57.692;11.958;2022-12-08T12:00:05;7.20;;;1.07;;
12990;SDS011;6560;57.692;11.958;2022-12-08T12:02:35;1.83;;;0.90;;
12990;SDS011;6560;57.692;11.958;2022-12-08T12:05:08;4.83;;;1.57;;
12990;SDS011;6560;57.692;11.958;2022-12-08T12:07:51;6.27;;;1.40;;
12990;SDS011;6560;57.692;11.958;2022-12-08T12:11:10;4.00;;;1.13;;
12990;SDS011;6560;57.692;11.958;2022-12-08T12:19:15;6.93;;;2.37;;
12990;SDS011;6560;57.692;11.958;2022-12-08T12:21:44;5.53;;;1.13;;
12990;SDS011;6560;57.692;11.958;2022-12-08T12:27:19;10.33;;;1.20;;
12990;SDS011;6560;57.692;11.958;2022-12-08T12:29:57;3.63;;;1.00;;
12990;SDS011;6560;57.692;11.958;2022-12-08T12:32:26;3.37;;;1.40;;
12990;SDS011;6560;57.692;11.958;2022-12-08T12:35:05;5.87;;;1.20;;
12990;SDS011;6560;57.692;11.958;2022-12-08T12:37:43;5.43;;;1.20;;
12990;SDS011;6560;57.692;11.958;2022-12-08T13:03:38;3.20;;;1.40;;
12990;SDS011;6560;57.692;11.958;2022-12-08T13:06:06;4.77;;;1.53;;
12990;SDS011;6560;57.692;11.958;2022-12-08T13:08:36;3.37;;;1.60;;
12990;SDS011;6560;57.692;11.958;2022-12-08T13:11:07;6.73;;;2.10;;
12990;SDS011;6560;57.692;11.958;2022-12-08T13:13:37;3.67;;;1.30;;
12990;SDS011;6560;57.692;11.958;2022-12-08T13:16:21;7.73;;;1.97;;
12990;SDS011;6560;57.692;11.958;2022-12-08T13:18:50;4.40;;;1.80;;
12990;SDS011;6560;57.692;11.958;2022-12-08T13:21:21;2.97;;;1.47;;
12990;SDS011;6560;57.692;11.958;2022-12-08T13:26:42;4.87;;;1.77;;
12990;SDS011;6560;57.692;11.958;2022-12-08T13:29:24;6.20;;;1.20;;
12990;SDS011;6560;57.692;11.958;2022-12-08T13:31:51;7.07;;;1.80;;
12990;SDS011;6560;57.692;11.958;2022-12-08T13:36:56;7.17;;;2.03;;
12990;SDS011;6560;57.692;11.958;2022-12-08T13:39:26;5.77;;;1.80;;
12990;SDS011;6560;57.692;11.958;2022-12-08T13:42:23;7.97;;;1.70;;
12990;SDS011;6560;57.692;11.958;2022-12-08T13:47:33;6.70;;;2.40;;
12990;SDS011;6560;57.692;11.958;2022-12-08T13:50:03;3.67;;;2.03;;
12990;SDS011;6560;57.692;11.958;2022-12-08T13:53:00;4.03;;;1.60;;
12990;SDS011;6560;57.692;11.958;2022-12-08T13:55:54;8.13;;;1.80;;
12990;SDS011;6560;57.692;11.958;2022-12-08T13:58:37;10.90;;;2.03;;
12990;SDS011;6560;57.692;11.958;2022-12-08T14:01:43;4.30;;;1.90;;
12990;SDS011;6560;57.692;11.958;2022-12-08T14:04:36;10.53;;;1.93;;
12990;SDS011;6560;57.692;11.958;2022-12-08T14:12:21;3.20;;;1.80;;
12990;SDS011;6560;57.692;11.958;2022-12-08T14:14:50;5.63;;;1.80;;
12990;SDS011;6560;57.692;11.958;2022-12-08T14:17:21;5.07;;;1.87;;
12990;SDS011;6560;57.692;11.958;2022-12-08T14:19:57;4.93;;;1.43;;
12990;SDS011;6560;57.692;11.958;2022-12-08T14:22:46;7.43;;;2.40;;
12990;SDS011;6560;57.692;11.958;2022-12-08T14:25:14;10.93;;;2.47;;
12990;SDS011;6560;57.692;11.958;2022-12-08T14:27:41;7.27;;;1.97;;
12990;SDS011;6560;57.692;11.958;2022-12-08T14:30:14;6.97;;;2.13;;
12990;SDS011;6560;57.692;11.958;2022-12-08T14:32:51;3.37;;;1.57;;
12990;SDS011;6560;57.692;11.958;2022-12-08T14:35:38;5.93;;;2.40;;
12990;SDS011;6560;57.692;11.958;2022-12-08T14:38:04;4.73;;;1.83;;
12990;SDS011;6560;57.692;11.958;2022-12-08T14:40:41;3.77;;;1.80;;
12990;SDS011;6560;57.692;11.958;2022-12-08T14:53:52;3.47;;;1.33;;
12990;SDS011;6560;57.692;11.958;2022-12-08T14:56:23;4.03;;;2.10;;
12990;SDS011;6560;57.692;11.958;2022-12-08T15:01:39;5.57;;;1.60;;
12990;SDS011;6560;57.692;11.958;2022-12-08T15:04:24;9.00;;;1.87;;
12990;SDS011;6560;57.692;11.958;2022-12-08T15:09:44;7.63;;;2.10;;
12990;SDS011;6560;57.692;11.958;2022-12-08T15:14:57;7.73;;;1.70;;
12990;SDS011;6560;57.692;11.958;2022-12-08T15:20:00;5.23;;;1.67;;
12990;SDS011;6560;57.692;11.958;2022-12-08T15:22:28;14.20;;;3.70;;
12990;SDS011;6560;57.692;11.958;2022-12-08T15:24:55;7.83;;;4.23;;
12990;SDS011;6560;57.692;11.958;2022-12-08T15:27:22;3.97;;;1.63;;
12990;SDS011;6560;57.692;11.958;2022-12-08T15:29:49;6.57;;;1.70;;
12990;SDS011;6560;57.692;11.958;2022-12-08T15:32:16;8.50;;;2.20;;
12990;SDS011;6560;57.692;11.958;2022-12-08T15:34:45;3.90;;;1.97;;
12990;SDS011;6560;57.692;11.958;2022-12-08T15:37:18;7.60;;;1.70;;
12990;SDS011;6560;57.692;11.958;2022-12-08T15:39:46;6.77;;;2.03;;
12990;SDS011;6560;57.692;11.958;2022-12-08T15:42:12;6.37;;;1.57;;
12990;SDS011;6560;57.692;11.958;2022-12-08T15:44:38;5.13;;;1.70;;
12990;SDS011;6560;57.692;11.958;2022-12-08T15:47:04;8.30;;;1.70;;
12990;SDS011;6560;57.692;11.958;2022-12-08T15:49:30;4.03;;;1.90;;
12990;SDS011;6560;57.692;11.958;2022-12-08T15:51:55;5.43;;;1.73;;
12990;SDS011;6560;57.692;11.958;2022-12-08T15:54:21;3.60;;;1.47;;
12990;SDS011;6560;57.692;11.958;2022-12-08T15:56:53;3.50;;;1.30;;
12990;SDS011;6560;57.692;11.958;2022-12-08T15:59:22;4.50;;;1.67;;
12990;SDS011;6560;57.692;11.958;2022-12-08T16:01:49;4.20;;;1.60;;
12990;SDS011;6560;57.692;11.958;2022-12-08T16:04:16;7.97;;;2.17;;
12990;SDS011;6560;57.692;11.958;2022-12-08T16:06:45;6.73;;;2.07;;
12990;SDS011;6560;57.692;11.958;2022-12-08T16:09:22;3.40;;;1.63;;
12990;SDS011;6560;57.692;11.958;2022-12-08T16:11:54;4.70;;;1.63;;
12990;SDS011;6560;57.692;11.958;2022-12-08T16:14:38;3.80;;;1.40;;
12990;SDS011;6560;57.692;11.958;2022-12-08T16:17:07;4.17;;;1.43;;
12990;SDS011;6560;57.692;11.958;2022-12-08T16:19:40;7.20;;;1.97;;
12990;SDS011;6560;57.692;11.958;2022-12-08T16:22:08;5.73;;;1.50;;
12990;SDS011;6560;57.692;11.958;2022-12-08T16:25:03;3.00;;;1.00;;
12990;SDS011;6560;57.692;11.958;2022-12-08T16:27:30;2.73;;;1.50;;
12990;SDS011;6560;57.692;11.958;2022-12-08T16:29:59;5.83;;;1.40;;
12990;SDS011;6560;57.692;11.958;2022-12-08T16:32:26;4.23;;;1.43;;
12990;SDS011;6560;57.692;11.958;2022-12-08T16:34:52;9.00;;;1.83;;
12990;SDS011;6560;57.692;11.958;2022-12-08T16:37:23;3.90;;;1.80;;
12990;SDS011;6560;57.692;11.958;2022-12-08T16:39:50;3.70;;;1.40;;
12990;SDS011;6560;57.692;11.958;2022-12-08T16:42:19;6.60;;;1.47;;
12990;SDS011;6560;57.692;11.958;2022-12-08T16:45:15;6.97;;;2.87;;
12990;SDS011;6560;57.692;11.958;2022-12-08T16:47:44;6.73;;;1.67;;
12990;SDS011;6560;57.692;11.958;2022-12-08T16:50:17;10.70;;;1.30;;
12990;SDS011;6560;57.692;11.958;2022-12-08T16:52:45;4.47;;;1.50;;
12990;SDS011;6560;57.692;11.958;2022-12-08T16:55:12;5.67;;;1.57;;
12990;SDS011;6560;57.692;11.958;2022-12-08T16:57:40;6.63;;;1.40;;
12990;SDS011;6560;57.692;11.958;2022-12-08T17:00:07;3.90;;;1.67;;
12990;SDS011;6560;57.692;11.958;2022-12-08T17:02:35;7.70;;;1.80;;
12990;SDS011;6560;57.692;11.958;2022-12-08T17:05:00;8.87;;;2.20;;
12990;SDS011;6560;57.692;11.958;2022-12-08T17:07:26;4.00;;;1.50;;
12990;SDS011;6560;57.692;11.958;2022-12-08T17:09:52;6.10;;;1.53;;